Time;durP1;ratioP1;P1;durP2;ratioP2;P2;SDS_P1;SDS_P2;PMS_P1;PMS_P2;Temp;Humidity;BMP_temperature;BMP_pressure;BME280_temperature;BME280_humidity;BME280_pressure;Samples;Min_cycle;Max_cycle;Signal;HPM_P1;HPM_P2
2021/08/17 00:00:09;;;;;;;0.30;0.30;;;;;;;17.37;41.18;92358.38;4975900;28;20049;-91
2021/08/17 00:02:35;;;;;;;0.43;0.38;;;;;;;17.44;41.73;92364.63;4993231;28;20045;-92
2021/08/17 00:05:11;;;;;;;0.38;0.38;;;;;;;17.36;41.79;92347.03;4975430;28;20081;-91
2021/08/17 00:07:37;;;;;;;0.77;0.55;;;;;;;17.40;41.95;92358.47;4986616;28;20053;-92
2021/08/17 00:10:06;;;;;;;2.30;0.80;;;;;;;17.38;42.49;92349.31;4994791;28;20041;-92
2021/08/17 00:12:32;;;;;;;0.28;0.28;;;;;;;17.37;42.44;92343.25;5010939;28;20088;-92
2021/08/17 00:15:08;;;;;;;1.30;0.80;;;;;;;17.33;42.74;92342.38;4994818;28;20058;-93
2021/08/17 00:17:36;;;;;;;0.30;0.30;;;;;;;17.36;42.28;92346.22;4988163;28;20038;-92
2021/08/17 00:20:08;;;;;;;0.40;0.40;;;;;;;17.33;42.86;92341.59;4994999;28;20074;-92
2021/08/17 00:22:40;;;;;;;0.30;0.30;;;;;;;17.35;42.59;92339.41;4994783;28;20048;-92
2021/08/17 00:25:09;;;;;;;;;;;;;;;17.41;42.88;92356.63;4998562;28;20073;-92
2021/08/17 00:27:35;;;;;;;0.20;0.20;;;;;;;17.32;42.68;92350.66;4986637;28;19913;-92
2021/08/17 00:30:02;;;;;;;0.38;0.38;;;;;;;17.32;42.45;92355.94;4991968;28;20482;-94
2021/08/17 00:32:28;;;;;;;0.22;0.22;;;;;;;17.44;42.91;92358.59;4998255;28;20060;-91
2021/08/17 00:34:59;;;;;;;0.57;0.47;;;;;;;17.40;42.62;92352.41;4998034;28;20053;-93
2021/08/17 00:37:29;;;;;;;0.32;0.32;;;;;;;17.40;42.64;92353.16;4989803;28;20084;-92
2021/08/17 00:39:58;;;;;;;2.55;0.55;;;;;;;17.49;42.60;92363.66;4978324;28;20049;-92
2021/08/17 00:42:24;;;;;;;0.20;0.20;;;;;;;17.45;43.18;92345.03;4977813;28;20070;-91
2021/08/17 00:44:53;;;;;;;0.45;0.43;;;;;;;17.60;41.42;92346.22;4978064;28;20088;-92
2021/08/17 00:47:19;;;;;;;0.47;0.47;;;;;;;17.62;42.99;92359.13;4991652;28;20045;-92
2021/08/17 00:49:45;;;;;;;0.70;0.43;;;;;;;17.57;42.18;92352.19;4996908;28;20168;-93
2021/08/17 00:52:15;;;;;;;0.20;0.20;;;;;;;17.57;42.14;92346.13;5030010;28;20391;-94
2021/08/17 00:54:51;;;;;;;1.48;0.90;;;;;;;17.60;42.33;92356.81;4996062;28;20045;-93
2021/08/17 00:57:19;;;;;;;0.20;0.20;;;;;;;17.58;43.09;92359.00;4993158;28;20042;-92
2021/08/17 00:59:45;;;;;;;0.88;0.47;;;;;;;17.54;42.73;92360.78;4977918;28;20045;-91
2021/08/17 01:02:22;;;;;;;0.50;0.50;;;;;;;17.56;42.82;92350.66;4977944;28;20046;-93
2021/08/17 01:04:48;;;;;;;0.85;0.60;;;;;;;17.54;42.91;92342.28;4978013;28;20050;-93
2021/08/17 01:07:17;;;;;;;0.20;0.20;;;;;;;17.55;42.37;92343.81;4980216;28;20173;-93
2021/08/17 01:09:48;;;;;;;0.32;0.32;;;;;;;17.59;42.62;92343.91;4996988;28;20129;-92
2021/08/17 01:12:18;;;;;;;0.75;0.43;;;;;;;17.68;41.61;92347.97;5012853;28;20049;-92
2021/08/17 01:14:46;;;;;;;1.40;0.70;;;;;;;17.72;41.83;92331.41;5013088;28;20046;-93
2021/08/17 01:17:21;;;;;;;0.20;0.20;;;;;;;17.75;41.61;92341.38;4992941;28;20467;-91
2021/08/17 01:19:58;;;;;;;0.20;0.20;;;;;;;17.75;41.54;92320.94;4993154;28;20045;-93
2021/08/17 01:22:27;;;;;;;0.17;0.17;;;;;;;17.73;41.93;92317.88;5025615;28;20038;-92
2021/08/17 01:24:55;;;;;;;1.08;0.73;;;;;;;17.70;41.98;92321.19;4997623;28;20483;-92
2021/08/17 01:27:24;;;;;;;0.20;0.20;;;;;;;17.88;41.30;92322.50;5004438;28;20054;-92
2021/08/17 01:29:54;;;;;;;0.35;0.35;;;;;;;17.81;41.82;92319.66;4978111;28;20053;-92
2021/08/17 01:32:25;;;;;;;0.65;0.47;;;;;;;17.74;41.81;92314.09;4993453;28;20042;-93
2021/08/17 01:34:55;;;;;;;0.57;0.45;;;;;;;17.73;42.11;92317.09;4993402;28;20129;-91
2021/08/17 01:37:26;;;;;;;0.38;0.38;;;;;;;17.82;41.38;92310.59;4988872;28;20034;-92
2021/08/17 01:40:07;;;;;;;0.40;0.40;;;;;;;17.91;41.03;92289.28;4977300;28;20077;-92
2021/08/17 01:42:40;;;;;;;0.75;0.30;;;;;;;17.83;41.38;92292.81;4994389;28;20503;-91
2021/08/17 01:45:14;;;;;;;1.08;0.38;;;;;;;17.82;41.03;92294.69;5009521;28;20586;-92
2021/08/17 01:47:40;;;;;;;0.28;0.28;;;;;;;17.77;41.96;92286.97;4994059;28;20096;-92
2021/08/17 01:50:17;;;;;;;0.43;0.40;;;;;;;17.86;41.80;92292.16;4996444;28;20037;-92
2021/08/17 01:52:43;;;;;;;0.20;0.20;;;;;;;17.95;40.93;92297.34;5013009;28;20507;-92
2021/08/17 01:55:09;;;;;;;0.52;0.35;;;;;;;17.97;41.44;92308.34;4977102;28;20049;-92
2021/08/17 01:57:42;;;;;;;0.40;0.40;;;;;;;17.94;40.82;92291.25;4973356;28;20061;-92
2021/08/17 02:00:13;;;;;;;0.43;0.30;;;;;;;17.88;42.09;92300.56;4993119;28;20495;-91
2021/08/17 02:02:46;;;;;;;0.30;0.30;;;;;;;17.95;41.27;92300.75;4992327;28;20138;-93
2021/08/17 02:05:25;;;;;;;;;;;;;;;;;;;;;
2021/08/17 02:07:53;;;;;;;0.65;0.60;;;;;;;17.65;43.64;92302.88;5026079;28;20048;-91
2021/08/17 02:10:19;;;;;;;0.20;0.20;;;;;;;17.52;43.60;92307.44;5012574;28;20403;-91
2021/08/17 02:12:50;;;;;;;0.93;0.65;;;;;;;17.50;43.09;92307.00;4996352;28;20045;-93
2021/08/17 02:15:26;;;;;;;0.35;0.35;;;;;;;17.48;44.10;92320.53;5018571;28;20048;-91
2021/08/17 02:17:57;;;;;;;1.10;0.40;;;;;;;17.49;43.08;92308.06;4977900;28;20050;-92
2021/08/17 02:20:23;;;;;;;0.43;0.43;;;;;;;17.46;43.60;92303.47;4993197;28;20046;-92
2021/08/17 02:22:56;;;;;;;0.28;0.28;;;;;;;17.51;44.05;92315.69;4993065;28;20133;-91
2021/08/17 02:25:22;;;;;;;0.88;0.73;;;;;;;17.33;45.22;92312.50;4990297;28;20478;-92
2021/08/17 02:27:48;;;;;;;0.30;0.30;;;;;;;17.48;42.97;92301.25;4973824;28;20048;-92
2021/08/17 02:30:27;;;;;;;0.20;0.20;;;;;;;17.73;43.10;92307.28;5002354;28;20496;-93
2021/08/17 02:33:07;;;;;;;0.40;0.40;;;;;;;17.46;44.20;92309.50;4993125;28;20042;-92
2021/08/17 02:35:36;;;;;;;0.90;0.55;;;;;;;17.59;42.28;92312.94;5008292;28;20065;-91
2021/08/17 02:38:10;;;;;;;0.60;0.55;;;;;;;17.47;43.82;92307.63;4976153;28;20069;-92
2021/08/17 02:40:39;;;;;;;0.45;0.43;;;;;;;17.48;43.97;92317.13;4976539;28;20095;-91
2021/08/17 02:43:07;;;;;;;0.28;0.28;;;;;;;17.43;43.69;92315.47;4992430;28;20677;-92
2021/08/17 02:45:43;;;;;;;0.30;0.30;;;;;;;17.48;42.77;92311.84;5007709;28;20379;-92
2021/08/17 02:48:11;;;;;;;0.22;0.22;;;;;;;17.29;43.79;92309.75;4992046;28;20074;-91
2021/08/17 02:50:39;;;;;;;0.93;0.50;;;;;;;17.29;43.52;92309.75;4992322;28;20038;-92
2021/08/17 02:53:05;;;;;;;0.35;0.28;;;;;;;17.36;43.52;92325.06;4959709;28;20034;-91
2021/08/17 02:55:33;;;;;;;0.20;0.20;;;;;;;17.41;43.10;92327.50;4993071;28;20109;-91
2021/08/17 02:58:08;;;;;;;0.20;0.20;;;;;;;17.49;42.84;92321.31;5004593;28;20145;-91
2021/08/17 03:00:40;;;;;;;0.25;0.25;;;;;;;17.47;42.42;92315.56;4975772;28;20101;-92
2021/08/17 03:03:10;;;;;;;0.73;0.57;;;;;;;17.52;42.22;92312.72;4991218;28;20052;-90
2021/08/17 03:05:38;;;;;;;0.80;0.50;;;;;;;17.52;42.74;92328.59;4993586;28;20042;-92
2021/08/17 03:08:08;;;;;;;0.38;0.38;;;;;;;17.54;42.05;92325.59;4976587;28;20038;-92
2021/08/17 03:10:39;;;;;;;0.28;0.28;;;;;;;17.53;41.99;92322.19;5003832;28;20050;-92
2021/08/17 03:13:11;;;;;;;0.73;0.60;;;;;;;17.55;42.28;92319.97;4975964;28;20543;-93
2021/08/17 03:15:47;;;;;;;0.20;0.20;;;;;;;17.57;41.73;92327.59;5009904;28;20038;-92
2021/08/17 03:18:15;;;;;;;0.30;0.30;;;;;;;17.55;41.88;92333.22;5007877;28;20047;-92
2021/08/17 03:20:41;;;;;;;0.15;0.15;;;;;;;17.50;41.71;92328.16;4991895;28;20089;-92
2021/08/17 03:23:08;;;;;;;0.60;0.32;;;;;;;17.54;41.22;92331.69;4975454;28;20046;-92
2021/08/17 03:25:36;;;;;;;1.20;0.70;;;;;;;17.58;41.20;92343.13;4975919;28;20499;-92
2021/08/17 03:28:05;;;;;;;0.40;0.40;;;;;;;17.61;41.72;92353.06;4966032;28;20061;-93
2021/08/17 03:30:43;;;;;;;0.38;0.38;;;;;;;17.56;41.92;92336.63;4991312;28;20038;-91
2021/08/17 03:33:24;;;;;;;0.63;0.50;;;;;;;17.50;41.72;92336.09;4992271;28;20057;-91
2021/08/17 03:35:58;;;;;;;1.25;0.68;;;;;;;17.50;41.14;92330.81;4962247;28;20046;-91
2021/08/17 03:38:30;;;;;;;0.30;0.25;;;;;;;17.50;41.50;92341.38;4979276;28;20074;-92
2021/08/17 03:41:18;;;;;;;0.10;0.10;;;;;;;17.48;41.46;92335.66;4991846;28;20084;-92
2021/08/17 03:43:44;;;;;;;1.60;0.43;;;;;;;17.55;41.49;92358.91;4975699;28;20504;-91
2021/08/17 03:46:23;;;;;;;0.98;0.65;;;;;;;17.57;41.60;92369.94;4994149;28;20039;-92
2021/08/17 03:48:59;;;;;;;1.98;0.55;;;;;;;17.45;41.97;92352.19;5026422;28;20050;-91
2021/08/17 03:51:27;;;;;;;0.30;0.30;;;;;;;17.51;41.68;92369.38;5010789;28;20046;-91
2021/08/17 03:53:56;;;;;;;1.30;0.75;;;;;;;17.46;41.68;92362.44;4972620;28;20042;-92
2021/08/17 03:56:31;;;;;;;1.23;0.63;;;;;;;17.49;41.22;92363.66;4991051;28;20038;-91
2021/08/17 03:59:00;;;;;;;2.83;0.75;;;;;;;17.53;41.37;92353.94;4980572;28;20410;-92
2021/08/17 04:01:25;;;;;;;0.28;0.28;;;;;;;17.47;41.79;92360.56;5030691;28;20049;-91
2021/08/17 04:03:54;;;;;;;0.20;0.20;;;;;;;17.50;41.22;92356.50;5009203;28;20062;-91
2021/08/17 04:06:22;;;;;;;0.40;0.40;;;;;;;17.49;41.62;92363.66;4995226;28;20092;-92
2021/08/17 04:08:48;;;;;;;1.90;0.50;;;;;;;17.43;42.05;92357.81;4977989;28;20070;-92
2021/08/17 04:11:25;;;;;;;0.17;0.17;;;;;;;17.37;42.10;92353.06;4982417;28;20054;-92
2021/08/17 04:13:54;;;;;;;0.20;0.20;;;;;;;17.36;41.41;92365.53;5011043;28;20174;-91
2021/08/17 04:16:25;;;;;;;0.20;0.20;;;;;;;17.42;41.62;92379.31;4979624;28;20108;-92
2021/08/17 04:19:00;;;;;;;0.47;0.32;;;;;;;17.43;41.82;92386.91;4996574;28;20062;-91
2021/08/17 04:21:29;;;;;;;0.30;0.30;;;;;;;17.41;41.95;92380.44;4980676;28;20069;-92
2021/08/17 04:24:04;;;;;;;0.10;0.10;;;;;;;17.40;41.94;92390.22;4995825;28;20069;-91
2021/08/17 04:26:35;;;;;;;1.30;0.50;;;;;;;17.39;42.20;92385.28;5001929;28;20632;-93
2021/08/17 04:29:06;;;;;;;0.40;0.30;;;;;;;17.31;41.73;92384.25;4996351;28;20054;-92
2021/08/17 04:31:32;;;;;;;0.73;0.50;;;;;;;17.38;42.42;92392.44;4981364;28;20742;-91
2021/08/17 04:33:58;;;;;;;0.30;0.30;;;;;;;17.42;41.84;92397.81;4978009;28;20030;-92
2021/08/17 04:36:26;;;;;;;0.35;0.35;;;;;;;17.32;42.19;92382.41;4979631;28;20051;-91
2021/08/17 04:38:54;;;;;;;0.30;0.30;;;;;;;17.31;42.29;92397.47;5009828;28;20030;-93
2021/08/17 04:41:20;;;;;;;0.10;0.10;;;;;;;17.25;42.40;92396.94;4993885;28;20058;-93
2021/08/17 04:43:51;;;;;;;0.35;0.35;;;;;;;17.27;41.52;92391.34;4989805;28;20061;-93
2021/08/17 04:46:28;;;;;;;0.40;0.40;;;;;;;17.26;42.11;92395.06;4991028;28;20058;-91
2021/08/17 04:49:15;;;;;;;0.43;0.43;;;;;;;17.27;41.71;92396.63;4994829;28;20049;-91
2021/08/17 04:51:46;;;;;;;0.40;0.32;;;;;;;17.25;42.18;92398.81;4997341;28;20124;-91
2021/08/17 04:54:24;;;;;;;0.43;0.40;;;;;;;17.19;42.43;92392.97;5013952;28;20053;-91
2021/08/17 04:57:21;;;;;;;0.30;0.30;;;;;;;17.23;42.54;92411.59;5013922;28;20383;-92
2021/08/17 04:59:54;;;;;;;0.10;0.10;;;;;;;17.21;42.68;92417.22;5014473;28;20049;-91
2021/08/17 05:02:32;;;;;;;0.65;0.50;;;;;;;17.18;42.46;92404.66;4982097;28;20300;-92
2021/08/17 05:05:14;;;;;;;0.22;0.22;;;;;;;17.20;42.37;92406.94;5007375;28;20088;-92
2021/08/17 05:11:18;;;;;;;0.30;0.30;;;;;;;17.23;42.56;92430.13;4994434;28;20044;-92
2021/08/17 05:13:43;;;;;;;0.47;0.40;;;;;;;17.31;42.41;92439.81;4985596;28;20061;-91
2021/08/17 05:16:19;;;;;;;0.20;0.20;;;;;;;17.24;42.56;92424.47;4995637;28;20089;-92
2021/08/17 05:18:47;;;;;;;0.40;0.38;;;;;;;17.31;42.71;92436.41;4978932;28;20139;-91
2021/08/17 05:21:16;;;;;;;0.30;0.30;;;;;;;17.32;42.59;92445.91;4995326;28;20511;-93
2021/08/17 05:24:15;;;;;;;0.35;0.25;;;;;;;17.30;42.68;92451.50;4996107;28;20423;-93
2021/08/17 05:27:06;;;;;;;0.30;0.30;;;;;;;17.30;42.77;92463.97;4997343;28;20042;-91
2021/08/17 05:30:03;;;;;;;;;;;;;;;;;;;;;
2021/08/17 05:32:53;;;;;;;0.30;0.30;;;;;;;17.26;42.67;92475.19;4995020;28;20495;-90
2021/08/17 05:35:24;;;;;;;0.28;0.28;;;;;;;17.32;42.46;92483.69;4995172;28;20097;-92
2021/08/17 05:38:12;;;;;;;;;;;;;;;;;;;;;
2021/08/17 05:40:46;;;;;;;0.35;0.32;;;;;;;17.40;42.62;92485.47;4981059;28;20145;-91
2021/08/17 05:43:14;;;;;;;0.30;0.30;;;;;;;17.57;43.00;92507.56;4994346;28;20043;-93
2021/08/17 05:46:02;;;;;;;;;;;;;;;;;;;;;
2021/08/17 05:48:39;;;;;;;0.20;0.20;;;;;;;17.64;43.13;92505.91;4994824;28;20089;-91
2021/08/17 05:51:04;;;;;;;0.30;0.30;;;;;;;17.82;42.60;92514.47;4977793;28;20042;-90
2021/08/17 05:53:33;;;;;;;0.35;0.32;;;;;;;17.92;42.19;92513.25;4994440;28;20030;-91
2021/08/17 05:56:08;;;;;;;0.20;0.20;;;;;;;18.07;41.94;92520.53;4997250;28;20133;-91
2021/08/17 05:58:43;;;;;;;0.43;0.28;;;;;;;18.29;41.72;92532.56;4994297;28;20054;-91
2021/08/17 06:01:14;;;;;;;0.57;0.50;;;;;;;18.45;41.46;92542.50;4993006;28;20518;-91
2021/08/17 06:03:55;;;;;;;0.20;0.20;;;;;;;18.63;42.01;92545.66;4989050;28;20049;-91
2021/08/17 06:06:28;;;;;;;0.30;0.30;;;;;;;18.67;41.33;92531.41;4985029;28;20045;-90
2021/08/17 06:09:04;;;;;;;0.73;0.73;;;;;;;18.86;40.93;92538.78;5032789;28;20046;-92
2021/08/17 06:11:42;;;;;;;0.32;0.32;;;;;;;18.99;39.78;92534.22;4998868;28;20046;-92
2021/08/17 06:14:36;;;;;;;0.20;0.20;;;;;;;19.21;40.00;92532.16;4982778;28;20045;-91
2021/08/17 06:17:23;;;;;;;0.30;0.30;;;;;;;19.53;39.14;92531.09;5026800;28;20054;-93
2021/08/17 06:19:52;;;;;;;0.40;0.40;;;;;;;21.68;35.03;92518.28;4963144;28;20058;-90
2021/08/17 06:22:23;;;;;;;0.63;0.63;;;;;;;25.19;29.43;92524.84;4977322;28;20050;-90
2021/08/17 06:24:59;;;;;;;0.77;0.68;;;;;;;27.47;25.15;92514.53;4985612;28;20100;-90
2021/08/17 06:27:35;;;;;;;0.70;0.70;;;;;;;29.16;24.28;92514.03;4995070;28;20068;-91
2021/08/17 06:30:09;;;;;;;0.90;0.90;;;;;;;30.41;22.31;92508.88;4979815;28;20077;-91
2021/08/17 06:33:19;;;;;;;1.58;1.10;;;;;;;31.41;21.07;92516.38;4949416;28;20047;-89
2021/08/17 06:36:03;;;;;;;1.10;0.98;;;;;;;32.36;20.79;92520.19;5010239;28;20049;-90
2021/08/17 06:38:44;;;;;;;1.30;1.20;;;;;;;33.30;19.60;92503.13;4982540;28;20057;-91
2021/08/17 06:41:26;;;;;;;6.97;1.50;;;;;;;33.68;18.86;92498.97;5013012;28;20042;-90
2021/08/17 06:44:16;;;;;;;;;;;;;;;;;;;;;
2021/08/17 06:46:47;;;;;;;1.45;1.17;;;;;;;35.15;18.23;92510.69;5009695;28;20045;-90
2021/08/17 06:49:42;;;;;;;1.00;1.00;;;;;;;35.51;17.15;92525.75;4994225;28;20073;-90
2021/08/17 06:52:13;;;;;;;1.20;1.00;;;;;;;35.49;16.82;92511.81;4981932;28;20049;-90
2021/08/17 06:54:49;;;;;;;1.15;1.05;;;;;;;36.11;17.43;92517.34;4997663;28;20050;-91
2021/08/17 06:57:22;;;;;;;1.55;1.15;;;;;;;35.75;16.90;92520.63;4997576;28;20049;-92
2021/08/17 07:00:43;;;;;;;;;;;;;;;;;;;;;
2021/08/17 07:03:47;;;;;;;1.38;0.88;;;;;;;34.95;16.98;92530.78;4985903;28;20046;-91
2021/08/17 07:06:41;;;;;;;0.90;0.63;;;;;;;32.98;19.86;92518.25;4975142;28;20074;-91
2021/08/17 07:09:10;;;;;;;1.20;0.80;;;;;;;31.35;21.15;92534.28;4974656;28;20408;-93
2021/08/17 07:12:01;;;;;;;1.00;0.77;;;;;;;29.50;23.48;92521.31;4936853;28;20039;-91
2021/08/17 07:14:46;;;;;;;1.58;0.88;;;;;;;28.99;23.48;92526.50;4925303;28;20055;-92
2021/08/17 07:17:25;;;;;;;1.02;0.60;;;;;;;28.40;25.85;92529.34;4990179;28;20034;-92
2021/08/17 07:26:57;;;;;;;0.40;0.40;;;;;;;26.69;27.09;92543.13;4932973;29;20059;-77
2021/08/17 07:29:23;;;;;;;1.55;0.73;;;;;;;26.58;27.97;92548.50;4933855;29;20051;-77
2021/08/17 07:31:49;;;;;;;0.88;0.57;;;;;;;26.47;28.30;92546.97;4947714;28;20047;-77
2021/08/17 07:34:15;;;;;;;0.40;0.40;;;;;;;26.34;28.92;92552.72;4956045;29;20102;-77
2021/08/17 07:36:40;;;;;;;0.32;0.30;;;;;;;26.38;27.90;92558.84;4940215;29;20126;-77
2021/08/17 07:39:08;;;;;;;0.70;0.43;;;;;;;26.29;28.48;92569.19;4957241;29;20669;-77
2021/08/17 07:41:34;;;;;;;1.08;0.70;;;;;;;26.28;28.28;92578.41;4956343;28;20039;-77
2021/08/17 07:44:01;;;;;;;0.40;0.40;;;;;;;26.02;28.24;92581.41;4955832;29;20503;-77
2021/08/17 07:46:26;;;;;;;0.90;0.63;;;;;;;26.10;29.12;92583.72;4924148;29;20511;-77
2021/08/17 07:48:52;;;;;;;0.50;0.50;;;;;;;26.03;29.49;92593.66;4957065;29;20047;-77
2021/08/17 07:51:18;;;;;;;0.65;0.52;;;;;;;26.05;28.42;92594.84;4957089;29;20039;-77
2021/08/17 07:53:44;;;;;;;0.85;0.60;;;;;;;25.61;29.41;92595.06;4957187;29;20043;-78
2021/08/17 07:56:10;;;;;;;0.63;0.50;;;;;;;25.18;28.81;92595.63;4955959;29;20047;-76
2021/08/17 07:58:37;;;;;;;0.22;0.22;;;;;;;24.26;28.33;92599.91;4955938;29;20129;-76
2021/08/17 08:01:03;;;;;;;0.30;0.30;;;;;;;24.30;32.13;92587.34;4954409;28;20046;-76
2021/08/17 08:03:28;;;;;;;0.73;0.43;;;;;;;24.40;32.58;92598.50;4955306;29;20436;-76
2021/08/17 08:05:54;;;;;;;0.80;0.55;;;;;;;24.47;30.39;92591.31;4955862;28;20062;-76
2021/08/17 08:08:20;;;;;;;0.65;0.45;;;;;;;24.12;31.17;92591.78;4955318;28;20054;-77
2021/08/17 08:10:45;;;;;;;0.57;0.52;;;;;;;24.19;32.03;92591.06;4954724;28;20039;-77
2021/08/17 08:13:11;;;;;;;0.50;0.50;;;;;;;24.10;30.93;92592.13;4948702;29;20134;-77
2021/08/17 08:15:37;;;;;;;0.55;0.35;;;;;;;24.48;31.69;92602.81;4955105;29;20126;-76
2021/08/17 08:18:03;;;;;;;0.52;0.45;;;;;;;24.74;31.12;92609.88;4951295;29;20066;-76
2021/08/17 08:20:29;;;;;;;0.82;0.60;;;;;;;24.54;29.54;92606.66;4955516;29;20050;-77
2021/08/17 08:22:55;;;;;;;0.65;0.55;;;;;;;24.18;32.20;92600.97;4938538;29;20553;-77
2021/08/17 08:25:21;;;;;;;0.20;0.20;;;;;;;23.95;31.36;92603.06;4980399;28;20092;-77
2021/08/17 08:27:47;;;;;;;1.00;0.70;;;;;;;23.84;30.86;92593.00;4976577;28;20482;-77
2021/08/17 08:30:13;;;;;;;0.82;0.40;;;;;;;23.82;30.59;92592.63;4976105;28;20046;-76
2021/08/17 08:32:39;;;;;;;0.65;0.50;;;;;;;23.84;31.35;92598.34;4995933;28;20049;-77
2021/08/17 08:35:07;;;;;;;0.32;0.32;;;;;;;24.02;31.29;92597.78;5013560;28;20045;-77
2021/08/17 08:37:33;;;;;;;1.50;0.68;;;;;;;23.73;30.98;92608.13;4978828;28;20039;-76
2021/08/17 08:39:59;;;;;;;1.00;0.60;;;;;;;24.10;31.28;92608.19;4973657;28;20105;-77
2021/08/17 08:42:25;;;;;;;0.43;0.40;;;;;;;24.36;31.48;92609.16;4961280;28;20038;-77
2021/08/17 08:44:52;;;;;;;0.30;0.30;;;;;;;24.70;30.11;92614.44;4974573;28;20536;-76
2021/08/17 08:47:20;;;;;;;0.35;0.35;;;;;;;24.79;30.37;92612.22;4993487;28;20045;-77
2021/08/17 08:49:48;;;;;;;0.45;0.45;;;;;;;24.96;30.33;92626.84;4983901;28;20248;-77
2021/08/17 08:52:13;;;;;;;2.60;0.68;;;;;;;25.08;30.74;92623.09;4993306;28;20055;-76
2021/08/17 08:54:39;;;;;;;0.43;0.38;;;;;;;24.87;29.59;92626.41;4977541;28;20051;-77
2021/08/17 08:57:04;;;;;;;8.57;0.50;;;;;;;24.80;30.94;92629.81;4973273;28;20124;-76
2021/08/17 08:59:30;;;;;;;1.23;0.63;;;;;;;24.82;31.01;92618.75;4971798;28;20489;-76
2021/08/17 09:02:08;;;;;;;0.75;0.60;;;;;;;25.20;29.61;92619.38;4978696;28;20046;-75
2021/08/17 09:04:33;;;;;;;0.35;0.28;;;;;;;25.34;29.42;92619.47;4988109;28;20046;-76
2021/08/17 09:06:59;;;;;;;0.43;0.40;;;;;;;24.65;27.84;92623.56;4978443;28;20558;-76
2021/08/17 09:09:25;;;;;;;1.45;0.80;;;;;;;24.59;29.94;92625.06;4983064;28;20145;-75
2021/08/17 09:11:53;;;;;;;0.77;0.50;;;;;;;24.89;29.38;92627.56;4975571;28;20055;-76
2021/08/17 09:14:23;;;;;;;0.47;0.40;;;;;;;24.86;30.84;92622.22;4974522;28;20196;-76
2021/08/17 09:16:53;;;;;;;1.05;0.77;;;;;;;25.26;30.13;92618.63;4958219;28;20046;-76
2021/08/17 09:19:25;;;;;;;1.08;0.50;;;;;;;25.44;31.05;92617.97;4975336;28;20094;-76
2021/08/17 09:21:51;;;;;;;1.48;0.52;;;;;;;25.50;29.32;92627.19;4983866;28;20081;-75
2021/08/17 09:24:24;;;;;;;0.63;0.63;;;;;;;25.62;29.71;92631.44;4953454;28;20078;-75
2021/08/17 09:26:56;;;;;;;0.40;0.40;;;;;;;25.43;30.71;92627.16;4952585;28;20054;-76
2021/08/17 09:29:34;;;;;;;1.00;0.68;;;;;;;25.89;28.58;92630.03;4955742;28;20127;-76
2021/08/17 09:32:21;;;;;;;1.40;0.85;;;;;;;25.78;29.87;92623.84;4960098;28;20130;-76
2021/08/17 09:34:50;;;;;;;1.10;0.70;;;;;;;25.92;28.70;92626.59;4966180;28;20077;-76
2021/08/17 09:37:17;;;;;;;1.35;0.80;;;;;;;25.93;29.32;92630.06;4957894;28;20053;-75
2021/08/17 09:39:47;;;;;;;1.55;0.70;;;;;;;25.65;26.30;92623.44;4948568;28;20047;-76
2021/08/17 09:42:16;;;;;;;1.83;0.90;;;;;;;25.63;28.67;92616.91;4968617;28;20049;-76
2021/08/17 09:44:44;;;;;;;0.40;0.40;;;;;;;25.84;29.17;92616.22;4964353;28;20097;-76
2021/08/17 09:47:10;;;;;;;0.50;0.50;;;;;;;26.09;27.98;92609.00;4953652;29;20536;-77
2021/08/17 09:49:35;;;;;;;1.10;0.70;;;;;;;26.08;27.17;92612.09;4955567;28;20889;-77
2021/08/17 09:52:15;;;;;;;0.50;0.50;;;;;;;25.67;28.55;92614.97;4971368;28;20043;-77
2021/08/17 09:54:46;;;;;;;0.63;0.50;;;;;;;25.83;27.28;92622.72;4946962;28;20159;-77
2021/08/17 09:57:13;;;;;;;1.00;0.65;;;;;;;25.28;27.28;92612.91;4956631;28;20043;-76
2021/08/17 09:59:47;;;;;;;1.40;0.75;;;;;;;25.52;29.74;92601.53;4956398;28;20034;-76
2021/08/17 10:02:14;;;;;;;0.30;0.30;;;;;;;25.43;27.41;92600.38;4966642;28;20058;-77
2021/08/17 10:04:41;;;;;;;0.43;0.43;;;;;;;25.59;27.09;92595.44;4972542;28;20074;-77
2021/08/17 10:07:08;;;;;;;0.50;0.50;;;;;;;25.27;28.01;92598.75;4957145;28;20513;-77
2021/08/17 10:09:36;;;;;;;0.55;0.55;;;;;;;25.00;27.74;92594.75;4955993;28;20035;-77
2021/08/17 10:12:04;;;;;;;0.57;0.45;;;;;;;24.23;28.25;92581.19;4964511;28;20141;-77
2021/08/17 10:14:30;;;;;;;1.08;0.85;;;;;;;24.70;28.83;92580.41;4967396;28;20082;-76
2021/08/17 10:16:56;;;;;;;1.20;0.82;;;;;;;24.33;29.60;92582.41;4953500;29;20525;-76
2021/08/17 10:19:25;;;;;;;0.60;0.50;;;;;;;24.02;28.85;92582.50;4943417;28;20043;-76
2021/08/17 10:21:53;;;;;;;1.45;0.77;;;;;;;23.88;29.13;92591.16;4963129;28;20166;-77
2021/08/17 10:24:29;;;;;;;0.35;0.35;;;;;;;23.93;29.32;92583.94;4971317;28;20054;-76
2021/08/17 10:27:26;;;;;;;0.70;0.55;;;;;;;24.06;28.66;92588.66;4967294;28;20038;-77
2021/08/17 10:29:53;;;;;;;0.60;0.47;;;;;;;24.29;29.53;92575.09;4996104;28;20100;-77
2021/08/17 10:32:55;;;;;;;0.75;0.63;;;;;;;24.36;30.22;92584.31;4974790;28;20035;-77
2021/08/17 10:35:30;;;;;;;0.30;0.30;;;;;;;24.08;28.10;92581.03;4971640;28;20405;-76
2021/08/17 10:38:08;;;;;;;0.70;0.45;;;;;;;24.06;27.32;92582.53;4991957;28;20106;-76
2021/08/17 10:40:51;;;;;;;0.52;0.35;;;;;;;23.82;27.94;92567.78;4969713;28;20050;-76
2021/08/17 10:43:26;;;;;;;0.60;0.50;;;;;;;23.81;28.68;92585.72;4971974;28;20421;-77
2021/08/17 10:46:01;;;;;;;0.50;0.50;;;;;;;24.26;29.30;92570.50;4985066;28;20073;-77
2021/08/17 10:48:48;;;;;;;0.45;0.40;;;;;;;24.47;29.97;92585.19;4964224;28;20583;-76
2021/08/17 10:51:17;;;;;;;0.95;0.73;;;;;;;24.35;27.18;92577.44;4982818;28;20046;-76
2021/08/17 10:53:43;;;;;;;0.52;0.50;;;;;;;24.46;28.11;92578.31;4979113;28;20046;-77
2021/08/17 10:56:22;;;;;;;0.90;0.68;;;;;;;24.63;29.17;92575.03;4990796;28;20109;-77
2021/08/17 10:58:56;;;;;;;0.43;0.43;;;;;;;24.48;27.56;92589.44;4983910;28;20042;-77
2021/08/17 11:01:34;;;;;;;0.70;0.65;;;;;;;24.88;31.11;92574.41;4969358;28;20077;-77
2021/08/17 11:04:35;;;;;;;0.60;0.50;;;;;;;24.87;28.14;92581.66;4990597;28;20042;-76
2021/08/17 11:07:00;;;;;;;0.32;0.32;;;;;;;24.98;28.07;92581.72;4971626;28;20108;-77
2021/08/17 11:09:37;;;;;;;0.95;0.60;;;;;;;24.75;28.19;92578.53;4941834;28;20038;-76
2021/08/17 11:12:06;;;;;;;0.22;0.22;;;;;;;24.58;27.73;92586.06;4974086;28;20043;-77
2021/08/17 11:14:33;;;;;;;0.50;0.50;;;;;;;24.46;28.36;92584.41;4990289;28;20487;-76
2021/08/17 11:17:02;;;;;;;1.33;0.88;;;;;;;24.64;28.34;92589.16;4958431;28;20054;-77
2021/08/17 11:19:32;;;;;;;0.35;0.30;;;;;;;24.70;28.42;92582.31;4985963;28;20500;-76
2021/08/17 11:21:59;;;;;;;0.75;0.68;;;;;;;24.44;27.35;92572.56;4986359;28;20551;-76
2021/08/17 11:24:36;;;;;;;1.08;0.52;;;;;;;24.62;28.38;92584.19;4958823;28;20047;-76
2021/08/17 11:27:23;;;;;;;0.68;0.65;;;;;;;24.67;28.29;92583.81;4943998;29;20051;-77
2021/08/17 11:29:56;;;;;;;0.80;0.65;;;;;;;24.55;27.81;92580.69;4952647;29;20039;-76
2021/08/17 11:32:39;;;;;;;0.55;0.50;;;;;;;24.62;26.67;92591.44;4952125;28;20058;-77
2021/08/17 11:35:11;;;;;;;0.57;0.52;;;;;;;24.55;27.09;92584.13;4952007;29;20046;-77
2021/08/17 11:37:41;;;;;;;0.40;0.40;;;;;;;24.68;26.96;92590.72;4932946;29;20525;-77
2021/08/17 11:40:09;;;;;;;0.82;0.70;;;;;;;25.01;27.64;92596.28;4943231;29;20051;-77
2021/08/17 11:42:37;;;;;;;0.47;0.47;;;;;;;25.10;26.79;92578.72;4951587;29;20118;-77
2021/08/17 11:45:08;;;;;;;0.63;0.55;;;;;;;24.85;27.68;92588.53;4952016;29;20051;-76
2021/08/17 11:47:35;;;;;;;0.38;0.38;;;;;;;25.07;28.11;92584.84;4951822;29;20039;-76
2021/08/17 11:50:05;;;;;;;0.57;0.52;;;;;;;25.60;27.25;92572.09;4952186;29;20035;-77
2021/08/17 11:52:42;;;;;;;0.63;0.60;;;;;;;25.79;27.40;92563.72;4949560;28;20046;-77
2021/08/17 11:55:35;;;;;;;0.30;0.30;;;;;;;26.12;26.95;92564.56;4951945;29;20471;-77
2021/08/17 11:58:07;;;;;;;2.33;0.70;;;;;;;26.05;28.23;92561.88;4918808;29;20058;-77
2021/08/17 12:00:34;;;;;;;1.60;0.52;;;;;;;25.99;26.41;92560.75;4943687;28;20047;-79
2021/08/17 12:03:06;;;;;;;0.43;0.32;;;;;;;25.84;25.16;92563.34;4955422;28;20046;-77
2021/08/17 12:05:37;;;;;;;1.20;0.70;;;;;;;26.17;27.07;92556.16;4935288;29;20047;-77
2021/08/17 12:08:05;;;;;;;7.30;0.90;;;;;;;25.94;26.08;92549.22;4935182;29;20054;-77
2021/08/17 12:10:35;;;;;;;0.45;0.45;;;;;;;26.20;26.19;92549.25;4952522;29;20524;-77
2021/08/17 12:13:04;;;;;;;0.52;0.50;;;;;;;26.48;27.08;92549.25;4919511;29;20059;-77
2021/08/17 12:15:36;;;;;;;0.52;0.52;;;;;;;26.48;25.22;92540.44;4952557;29;20043;-76